createdAt,value
2019-05-03T00:00:16.721Z,11.59
2019-05-03T00:01:09.102Z,11.6
2019-05-03T00:01:35.285Z,11.55
2019-05-03T00:02:27.659Z,11.54
2019-05-03T00:03:46.269Z,11.48
2019-05-03T00:04:38.650Z,11.51
2019-05-03T00:05:04.874Z,11.59
2019-05-03T00:05:57.255Z,11.57
2019-05-03T00:07:15.860Z,11.51
2019-05-03T00:08:08.239Z,11.54
2019-05-03T00:08:34.455Z,11.51
2019-05-03T00:09:26.862Z,11.6
2019-05-03T00:10:19.246Z,11.65
2019-05-03T00:10:45.433Z,11.65
2019-05-03T00:11:37.812Z,11.66
2019-05-03T00:12:56.383Z,11.63
2019-05-03T00:13:48.764Z,11.69
2019-05-03T00:14:14.945Z,11.63
2019-05-03T00:15:07.367Z,11.72
2019-05-03T00:16:25.931Z,11.68
2019-05-03T00:17:18.308Z,11.66
2019-05-03T00:17:44.483Z,11.6
2019-05-03T00:18:36.907Z,11.57
2019-05-03T00:19:29.281Z,11.6
2019-05-03T00:19:55.513Z,11.63
2019-05-03T00:20:47.891Z,11.6
2019-05-03T00:22:06.458Z,11.63
2019-05-03T00:22:58.844Z,11.5
2019-05-03T00:23:25.024Z,11.54
2019-05-03T00:24:17.439Z,11.57
2019-05-03T00:25:37.965Z,11.5
2019-05-03T00:26:04.124Z,11.52
2019-05-03T00:26:31.793Z,11.51
2019-05-03T00:26:58.033Z,11.55
2019-05-03T00:27:50.418Z,11.55
2019-05-03T00:28:18.543Z,11.54
2019-05-03T00:29:12.711Z,11.5
2019-05-03T00:29:38.900Z,11.52
2019-05-03T00:30:59.242Z,11.52
2019-05-03T00:32:19.008Z,11.57
2019-05-03T00:33:39.544Z,11.55
2019-05-03T00:34:07.532Z,11.59
2019-05-03T00:35:01.644Z,11.59
2019-05-03T00:35:27.800Z,11.5
2019-05-03T00:36:22.317Z,11.54
2019-05-03T00:36:48.599Z,11.54
2019-05-03T00:38:09.137Z,11.63
2019-05-03T00:39:29.159Z,11.68
2019-05-03T00:40:49.700Z,11.6
2019-05-03T00:42:11.915Z,11.6
2019-05-03T00:42:37.920Z,11.48
2019-05-03T00:43:31.744Z,11.59
2019-05-03T00:43:58.114Z,11.52
2019-05-03T00:44:52.469Z,11.59
2019-05-03T00:45:18.645Z,11.54
2019-05-03T00:46:12.728Z,11.5
2019-05-03T00:46:38.880Z,11.5
2019-05-03T00:47:32.817Z,11.45
2019-05-03T00:47:59.057Z,11.52
2019-05-03T00:49:19.636Z,11.52
2019-05-03T00:49:47.799Z,11.45
2019-05-03T00:50:40.178Z,11.51
2019-05-03T00:51:07.755Z,11.51
2019-05-03T00:52:02.310Z,11.51
2019-05-03T00:52:28.290Z,11.59
2019-05-03T00:53:22.350Z,11.54
2019-05-03T00:53:48.621Z,11.5
2019-05-03T00:54:42.380Z,11.63
2019-05-03T00:55:15.956Z,11.47
2019-05-03T00:55:37.723Z,11.33
2019-05-03T00:56:32.117Z,11.45
2019-05-03T00:56:59.293Z,11.41
2019-05-03T00:57:52.117Z,11.47
2019-05-03T00:58:18.411Z,11.47
2019-05-03T00:59:12.639Z,11.48
2019-05-03T00:59:38.891Z,11.48
2019-05-03T01:00:32.433Z,11.63
2019-05-03T01:00:58.582Z,11.55
2019-05-03T01:02:19.161Z,11.51
2019-05-03T01:03:41.776Z,11.47
2019-05-03T01:04:07.866Z,11.5
2019-05-03T01:05:02.804Z,11.45
2019-05-03T01:05:28.466Z,11.4
2019-05-03T01:06:22.308Z,11.47
2019-05-03T01:06:48.581Z,11.41
2019-05-03T01:08:09.157Z,11.4
2019-05-03T01:09:29.052Z,11.37
2019-05-03T01:10:51.504Z,11.32
2019-05-03T01:11:17.890Z,11.41
2019-05-03T01:12:12.570Z,11.44
2019-05-03T01:12:38.425Z,11.4
2019-05-03T01:13:32.033Z,11.44
2019-05-03T01:13:58.045Z,11.44
2019-05-03T01:14:52.409Z,11.37
2019-05-03T01:15:18.620Z,11.4
2019-05-03T01:16:12.059Z,11.41
2019-05-03T01:16:38.507Z,11.37
2019-05-03T01:17:59.058Z,11.35
2019-05-03T01:19:19.585Z,11.25
2019-05-03T01:19:47.750Z,11.23
2019-05-03T01:20:40.153Z,11.33
2019-05-03T01:21:07.625Z,11.32
2019-05-03T01:22:01.923Z,11.37
2019-05-03T01:22:27.936Z,11.32
2019-05-03T01:23:21.884Z,11.32
2019-05-03T01:23:48.327Z,11.26
2019-05-03T01:24:42.855Z,11.27
2019-05-03T01:25:09.007Z,11.3
2019-05-03T01:26:31.815Z,11.29
2019-05-03T01:26:57.870Z,11.35
2019-05-03T01:27:52.030Z,11.19
2019-05-03T01:28:17.527Z,11.22
2019-05-03T01:29:11.663Z,11.23
2019-05-03T01:29:38.077Z,11.26
2019-05-03T01:30:32.038Z,11.25
2019-05-03T01:30:58.239Z,11.18
2019-05-03T01:31:52.485Z,11.26
2019-05-03T01:32:18.151Z,11.1
2019-05-03T01:33:12.107Z,11.11
2019-05-03T01:33:38.374Z,11.15
2019-05-03T01:34:32.566Z,11.26
2019-05-03T01:34:58.839Z,11.27
2019-05-03T01:36:19.420Z,11.3
2019-05-03T01:36:47.586Z,11.22
2019-05-03T01:37:39.959Z,11.32
2019-05-03T01:38:07.828Z,11.37
2019-05-03T01:39:31.278Z,11.44
2019-05-03T01:39:57.960Z,11.43
2019-05-03T01:40:52.159Z,11.41
2019-05-03T01:41:17.663Z,11.36
2019-05-03T01:42:11.811Z,11.45
2019-05-03T01:42:38.234Z,11.41
2019-05-03T01:43:32.600Z,11.41
2019-05-03T01:43:58.785Z,11.43
2019-05-03T01:44:52.367Z,11.45
2019-05-03T01:45:18.549Z,11.55
2019-05-03T01:46:39.099Z,11.63
2019-05-03T01:47:32.659Z,11.63
2019-05-03T01:47:58.806Z,11.63
2019-05-03T01:49:19.349Z,11.54
2019-05-03T01:50:12.748Z,11.4
2019-05-03T01:50:38.934Z,11.4
2019-05-03T01:51:32.729Z,11.37
2019-05-03T01:51:58.560Z,11.36
2019-05-03T01:52:52.427Z,11.47
2019-05-03T01:53:18.624Z,11.47
2019-05-03T01:54:39.205Z,11.52
2019-05-03T01:56:01.287Z,11.45
2019-05-03T01:56:27.623Z,11.44
2019-05-03T01:57:22.169Z,11.45
2019-05-03T01:57:48.328Z,11.59
2019-05-03T01:58:42.683Z,11.6
2019-05-03T01:59:08.872Z,11.5
2019-05-03T02:00:29.422Z,11.5
2019-05-03T02:01:51.607Z,11.59
2019-05-03T02:02:18.010Z,11.51
2019-05-03T02:03:12.347Z,11.47
2019-05-03T02:03:38.530Z,11.41
2019-05-03T02:04:32.279Z,11.44
2019-05-03T02:04:58.109Z,11.43
2019-05-03T02:05:52.019Z,11.37
2019-05-03T02:06:17.735Z,11.41
2019-05-03T02:07:11.715Z,11.41
2019-05-03T02:08:29.833Z,11.47
2019-05-03T02:09:49.430Z,11.44
2019-05-03T02:11:11.562Z,11.43
2019-05-03T02:11:37.942Z,11.33
2019-05-03T02:12:31.924Z,11.37
2019-05-03T02:12:57.549Z,11.4
2019-05-03T02:13:49.932Z,11.37
2019-05-03T02:14:17.635Z,11.43
2019-05-03T02:15:11.805Z,11.55
2019-05-03T02:16:29.665Z,11.55
2019-05-03T02:16:57.560Z,11.48
2019-05-03T02:17:51.905Z,11.43
2019-05-03T02:18:18.097Z,11.41
2019-05-03T02:19:12.490Z,11.44
2019-05-03T02:19:37.935Z,11.29
2019-05-03T02:20:32.371Z,11.4
2019-05-03T02:20:58.482Z,11.23
2019-05-03T02:21:52.311Z,11.23
2019-05-03T02:22:18.605Z,11.26
2019-05-03T02:23:39.149Z,11.35
2019-05-03T02:24:32.819Z,11.29
2019-05-03T02:24:59.007Z,11.29
2019-05-03T02:26:22.365Z,11.27
2019-05-03T02:26:47.790Z,11.26
2019-05-03T02:27:42.027Z,11.27
2019-05-03T02:28:08.325Z,11.26
2019-05-03T02:29:01.814Z,11.22
2019-05-03T02:29:28.352Z,11.23
2019-05-03T02:30:24.905Z,11.3
2019-05-03T02:30:49.886Z,11.23
2019-05-03T02:31:18.052Z,11.29
2019-05-03T02:32:13.142Z,11.26
2019-05-03T02:32:38.670Z,11.26
2019-05-03T02:33:32.843Z,11.26
2019-05-03T02:33:59.142Z,11.26
2019-05-03T02:34:53.451Z,11.14
2019-05-03T02:35:19.780Z,11.12
2019-05-03T02:35:47.675Z,11.18
2019-05-03T02:36:42.525Z,11.19
2019-05-03T02:37:08.296Z,11.12
2019-05-03T02:38:03.357Z,11.12
2019-05-03T02:38:28.844Z,11.14
2019-05-03T02:39:49.413Z,11.12
2019-05-03T02:41:09.065Z,11.1
2019-05-03T02:42:30.618Z,11.23
2019-05-03T02:43:49.391Z,11.17
2019-05-03T02:44:41.786Z,11.15
2019-05-03T02:45:08.007Z,11.11
2019-05-03T02:46:00.489Z,11.14
2019-05-03T02:47:19.236Z,11.12
2019-05-03T02:48:11.647Z,11.15
2019-05-03T02:48:37.835Z,11.12
2019-05-03T02:49:30.245Z,11.08
2019-05-03T02:50:25.773Z,11.15
2019-05-03T02:50:49.839Z,11.18
2019-05-03T02:51:42.247Z,11.07
2019-05-03T02:52:09.425Z,11.07
2019-05-03T02:53:01.842Z,11.02
2019-05-03T02:53:28.088Z,10.97
2019-05-03T02:54:20.564Z,11.04
2019-05-03T02:55:39.201Z,11.14
2019-05-03T02:57:00.782Z,11.18
2019-05-03T02:58:20.444Z,11.26
2019-05-03T02:59:39.039Z,11.17
2019-05-03T03:00:31.855Z,11.22
2019-05-03T03:00:59.024Z,11.1
2019-05-03T03:01:51.405Z,11.07
2019-05-03T03:02:18.614Z,11.17
2019-05-03T03:03:11.032Z,11.22
2019-05-03T03:04:30.660Z,11.15
2019-05-03T03:05:49.263Z,11.15
2019-05-03T03:06:41.678Z,11.1
2019-05-03T03:07:07.856Z,11.17
2019-05-03T03:08:00.280Z,11.22
2019-05-03T03:09:19.960Z,11.19
2019-05-03T03:10:12.417Z,11.26
2019-05-03T03:10:38.602Z,11.26
2019-05-03T03:11:31.061Z,11.23
2019-05-03T03:12:49.770Z,11.23
2019-05-03T03:13:42.149Z,11.14
2019-05-03T03:14:09.332Z,11.11
2019-05-03T03:15:01.782Z,11.12
2019-05-03T03:15:28.956Z,11.14
2019-05-03T03:16:21.368Z,11.14
2019-05-03T03:16:48.539Z,11.11
2019-05-03T03:17:40.959Z,11.11
2019-05-03T03:18:59.631Z,11.1
2019-05-03T03:19:52.007Z,11.17
2019-05-03T03:20:19.180Z,11.1
2019-05-03T03:21:11.596Z,11.04
2019-05-03T03:21:38.814Z,11.05
2019-05-03T03:22:31.300Z,11.08
2019-05-03T03:22:57.560Z,11.04
2019-05-03T03:23:49.944Z,11.14
2019-05-03T03:24:42.347Z,11.11
2019-05-03T03:25:08.604Z,11.11
2019-05-03T03:26:00.976Z,11.17
2019-05-03T03:27:21.621Z,11.15
2019-05-03T03:27:48.831Z,11.15
2019-05-03T03:28:41.211Z,11.02
2019-05-03T03:29:08.421Z,11
2019-05-03T03:30:00.843Z,11.04
2019-05-03T03:31:20.519Z,11
2019-05-03T03:32:40.626Z,11
2019-05-03T03:34:01.040Z,11
2019-05-03T03:35:51.609Z,10.96
2019-05-03T03:36:49.522Z,11.02
2019-05-03T03:36:59.234Z,11.02
2019-05-03T03:38:09.529Z,11
2019-05-03T03:39:01.914Z,10.94
2019-05-03T03:39:29.090Z,10.93
2019-05-03T03:40:21.585Z,10.93
2019-05-03T03:40:48.831Z,10.81
2019-05-03T03:41:41.211Z,10.89
2019-05-03T03:42:59.818Z,10.81
2019-05-03T03:43:52.200Z,10.89
2019-05-03T03:44:18.385Z,10.94
2019-05-03T03:45:10.868Z,10.97
2019-05-03T03:46:32.136Z,10.89
2019-05-03T03:47:49.174Z,10.81
2019-05-03T03:48:41.620Z,10.84
2019-05-03T03:49:07.806Z,10.79
2019-05-03T03:50:00.228Z,10.87
2019-05-03T03:50:52.607Z,11.04
2019-05-03T03:51:18.864Z,11.04
2019-05-03T03:52:11.277Z,10.96
2019-05-03T03:52:37.536Z,10.87
2019-05-03T03:53:29.956Z,11.02
2019-05-03T03:54:22.339Z,11
2019-05-03T03:54:48.557Z,10.99
2019-05-03T03:55:41.006Z,10.97
2019-05-03T03:57:04.460Z,10.93
2019-05-03T03:57:29.302Z,10.99
2019-05-03T03:58:23.071Z,10.99
2019-05-03T03:58:48.941Z,10.99
2019-05-03T03:59:41.385Z,10.87
2019-05-03T04:00:07.633Z,10.87
2019-05-03T04:01:00.056Z,10.89
2019-05-03T04:01:54.944Z,11.04
2019-05-03T04:02:19.692Z,10.84
2019-05-03T04:03:12.153Z,10.9
2019-05-03T04:03:38.341Z,10.87
2019-05-03T04:04:30.787Z,10.9
2019-05-03T04:05:49.397Z,10.87
2019-05-03T04:06:41.865Z,10.89
2019-05-03T04:07:09.111Z,10.94
2019-05-03T04:08:01.531Z,10.99
2019-05-03T04:08:28.742Z,10.9
2019-05-03T04:09:21.124Z,10.93
2019-05-03T04:10:39.801Z,10.9
2019-05-03T04:11:32.215Z,10.84
2019-05-03T04:11:58.396Z,10.92
2019-05-03T04:12:50.847Z,10.94
2019-05-03T04:14:09.521Z,10.69
2019-05-03T04:15:01.934Z,10.74
2019-05-03T04:15:28.121Z,10.71
2019-05-03T04:16:21.173Z,10.75
2019-05-03T04:17:39.840Z,10.68
2019-05-03T04:18:32.262Z,10.74
2019-05-03T04:18:59.442Z,10.72
2019-05-03T04:19:51.890Z,10.74
2019-05-03T04:20:18.115Z,10.67
2019-05-03T04:21:10.535Z,10.63
2019-05-03T04:22:29.101Z,10.69
2019-05-03T04:23:21.584Z,10.72
2019-05-03T04:23:47.777Z,10.74
2019-05-03T04:24:40.159Z,10.63
2019-05-03T04:25:35.459Z,10.68
2019-05-03T04:25:59.796Z,10.74
2019-05-03T04:26:52.170Z,10.67
2019-05-03T04:27:23.241Z,10.64
2019-05-03T04:28:12.791Z,10.68
2019-05-03T04:28:39.019Z,10.72
2019-05-03T04:29:31.417Z,10.63
2019-05-03T04:29:57.674Z,10.67
2019-05-03T04:30:50.047Z,10.64
2019-05-03T04:31:42.473Z,10.71
2019-05-03T04:32:08.701Z,10.71
2019-05-03T04:33:01.108Z,10.74
2019-05-03T04:34:19.749Z,10.75
2019-05-03T04:35:12.172Z,10.82
2019-05-03T04:35:38.354Z,10.78
2019-05-03T04:36:30.737Z,10.79
2019-05-03T04:37:50.391Z,10.74
2019-05-03T04:39:08.995Z,10.79
2019-05-03T04:40:02.273Z,10.86
2019-05-03T04:40:29.444Z,10.84
2019-05-03T04:41:21.934Z,10.89
2019-05-03T04:41:48.184Z,10.87
2019-05-03T04:42:40.591Z,10.89
2019-05-03T04:43:59.173Z,10.78
2019-05-03T04:44:51.559Z,10.86
2019-05-03T04:45:17.820Z,10.89
2019-05-03T04:46:10.204Z,11.02
2019-05-03T04:47:29.919Z,10.96
2019-05-03T04:48:25.213Z,11.04
2019-05-03T04:48:49.622Z,10.9
2019-05-03T04:49:42.052Z,10.99
2019-05-03T04:50:09.273Z,10.92
2019-05-03T04:51:01.729Z,11.04
2019-05-03T04:51:27.905Z,10.99
2019-05-03T04:52:20.405Z,11
2019-05-03T04:53:39.007Z,10.97
2019-05-03T04:54:31.500Z,11
2019-05-03T04:54:57.687Z,11.02
2019-05-03T04:55:50.107Z,11
2019-05-03T04:56:42.563Z,11.1
2019-05-03T04:57:08.818Z,11.08
2019-05-03T04:58:30.392Z,11.25
2019-05-03T04:59:48.959Z,11.26
2019-05-03T05:00:42.331Z,11.26
2019-05-03T05:01:08.520Z,11.3
2019-05-03T05:02:00.879Z,11.43
2019-05-03T05:03:20.352Z,11.25
2019-05-03T05:04:12.650Z,11.29
2019-05-03T05:04:38.792Z,11.37
2019-05-03T05:05:31.133Z,11.37
2019-05-03T05:06:49.619Z,11.37
2019-05-03T05:07:41.966Z,11.35
2019-05-03T05:08:08.103Z,11.35
2019-05-03T05:09:00.430Z,11.26
2019-05-03T05:10:18.975Z,11.27
2019-05-03T05:11:11.254Z,11.35
2019-05-03T05:12:29.669Z,11.35
2019-05-03T05:13:21.976Z,11.37
2019-05-03T05:13:48.161Z,11.22
2019-05-03T05:14:40.470Z,11.32
2019-05-03T05:15:58.919Z,11.26
2019-05-03T05:16:51.213Z,11.27
2019-05-03T05:18:09.646Z,11.3
2019-05-03T05:19:02.012Z,11.36
2019-05-03T05:19:28.128Z,11.41
2019-05-03T05:20:20.410Z,11.3
2019-05-03T05:21:14.841Z,11.19
2019-05-03T05:21:39.864Z,11.27
2019-05-03T05:23:00.278Z,11.23
2019-05-03T05:23:54.676Z,11.3
2019-05-03T05:24:19.691Z,11.29
2019-05-03T05:25:12.009Z,11.3
2019-05-03T05:25:38.136Z,11.29
2019-05-03T05:26:30.419Z,11.33
2019-05-03T05:27:54.622Z,11.47
2019-05-03T05:28:18.933Z,11.55
2019-05-03T05:29:11.249Z,11.51
2019-05-03T05:30:29.666Z,11.6
2019-05-03T05:31:21.951Z,11.5
2019-05-03T05:31:48.085Z,11.59
2019-05-03T05:32:40.375Z,11.5
2019-05-03T05:33:32.654Z,11.54
2019-05-03T05:33:58.790Z,11.62
2019-05-03T05:34:51.080Z,11.72
2019-05-03T05:36:09.502Z,11.65
2019-05-03T05:37:01.782Z,11.72
2019-05-03T05:37:27.940Z,11.69
2019-05-03T05:38:20.271Z,11.6
2019-05-03T05:39:39.765Z,11.63
2019-05-03T05:40:32.074Z,11.6
2019-05-03T05:40:58.211Z,11.48
2019-05-03T05:41:50.500Z,11.41
2019-05-03T05:43:08.911Z,11.37
2019-05-03T05:44:01.202Z,11.48
2019-05-03T05:45:19.628Z,11.57
2019-05-03T05:46:11.970Z,11.59
2019-05-03T05:46:38.115Z,11.45
2019-05-03T05:47:30.435Z,11.57
2019-05-03T05:48:48.921Z,11.8
2019-05-03T05:49:41.196Z,11.66
2019-05-03T05:50:59.617Z,11.7
2019-05-03T05:51:51.904Z,11.69
2019-05-03T05:52:18.039Z,11.7
2019-05-03T05:53:10.348Z,11.55
2019-05-03T05:54:02.633Z,11.68
2019-05-03T05:54:28.769Z,11.65
2019-05-03T05:55:21.102Z,11.6
2019-05-03T05:56:39.556Z,11.5
2019-05-03T05:57:31.852Z,11.57
2019-05-03T05:58:04.476Z,11.48
2019-05-03T05:58:51.278Z,11.5
2019-05-03T06:00:09.711Z,11.52
2019-05-03T06:01:02.037Z,11.62
2019-05-03T06:01:29.196Z,11.51
2019-05-03T06:02:21.515Z,11.69
2019-05-03T06:02:47.673Z,11.62
2019-05-03T06:03:39.995Z,11.55
2019-05-03T06:04:32.278Z,11.59
2019-05-03T06:04:58.409Z,11.55
2019-05-03T06:05:50.722Z,11.68
2019-05-03T06:07:10.478Z,11.62
2019-05-03T06:08:28.893Z,11.73
2019-05-03T06:09:21.183Z,11.63
2019-05-03T06:10:39.604Z,11.66
2019-05-03T06:11:31.889Z,11.72
2019-05-03T06:11:58.053Z,11.75
2019-05-03T06:12:50.344Z,11.94
2019-05-03T06:13:44.359Z,12.09
2019-05-03T06:14:09.755Z,12.1
2019-05-03T06:15:02.038Z,12.06
2019-05-03T06:15:28.171Z,12.03
2019-05-03T06:16:20.454Z,12.12
2019-05-03T06:17:38.878Z,12.37
2019-05-03T06:18:31.197Z,12.39
2019-05-03T06:19:50.632Z,12.46
2019-05-03T06:21:09.051Z,12.5
2019-05-03T06:22:01.354Z,12.62
2019-05-03T06:23:20.769Z,12.65
2019-05-03T06:24:40.183Z,12.95
2019-05-03T06:25:32.488Z,13.01
2019-05-03T06:25:58.649Z,13.09
2019-05-03T06:26:50.947Z,12.97
2019-05-03T06:28:18.172Z,12.95
2019-05-03T06:29:29.816Z,12.87
2019-05-03T06:30:22.123Z,12.97
2019-05-03T06:30:48.496Z,13.01
2019-05-03T06:31:41.781Z,12.97
2019-05-03T06:32:07.972Z,13.04
2019-05-03T06:33:00.277Z,13
2019-05-03T06:33:52.636Z,13.05
2019-05-03T06:34:18.741Z,13.09
2019-05-03T06:35:11.073Z,13.01
2019-05-03T06:36:30.953Z,13.05
2019-05-03T06:37:50.629Z,12.93
2019-05-03T06:39:10.056Z,13.12
2019-05-03T06:40:05.584Z,13.23
2019-05-03T06:40:28.735Z,13.25
2019-05-03T06:41:22.000Z,13.25
2019-05-03T06:41:48.131Z,13.27
2019-05-03T06:42:52.236Z,13.37
2019-05-03T06:43:12.849Z,13.42
2019-05-03T06:43:39.499Z,13.42
2019-05-03T06:45:08.129Z,13.22
2019-05-03T06:45:27.568Z,13.11
2019-05-03T06:46:23.386Z,13.18
2019-05-03T06:47:45.781Z,13.3
2019-05-03T06:48:08.570Z,13.37
2019-05-03T06:49:30.969Z,13.5
2019-05-03T06:49:59.004Z,13.49
2019-05-03T06:50:52.292Z,13.71
2019-05-03T06:51:20.185Z,13.68
2019-05-03T06:52:41.598Z,14.14
2019-05-03T06:53:12.702Z,14.33
2019-05-03T06:54:02.040Z,14.91
2019-05-03T06:54:30.022Z,15.4
2019-05-03T06:55:24.603Z,15.75
2019-05-03T06:55:50.523Z,16.04
2019-05-03T06:57:44.529Z,16.51
2019-05-03T06:59:01.417Z,16.38
2019-05-03T06:59:27.552Z,16.35
2019-05-03T07:00:19.851Z,16.29
2019-05-03T07:01:12.140Z,16.24
2019-05-03T07:01:38.294Z,16.28
2019-05-03T07:02:30.611Z,16.32
2019-05-03T07:03:49.096Z,16.09
2019-05-03T07:04:41.451Z,15.51
2019-05-03T07:05:07.558Z,15.68
2019-05-03T07:05:59.872Z,15.58
2019-05-03T07:06:52.253Z,15.39
2019-05-03T07:07:18.389Z,15.28
2019-05-03T07:08:10.696Z,15.52
2019-05-03T07:09:29.151Z,15.95
2019-05-03T07:10:21.436Z,16.39
2019-05-03T07:10:48.596Z,16.41
2019-05-03T07:11:40.902Z,16.53
2019-05-03T07:12:59.367Z,16.53
2019-05-03T07:13:51.648Z,16.47
2019-05-03T07:14:17.790Z,16.5
2019-05-03T07:15:11.086Z,16.41
2019-05-03T07:16:29.517Z,16.02
2019-05-03T07:17:21.803Z,16.08
2019-05-03T07:17:47.970Z,16.09
2019-05-03T07:18:40.255Z,16.1
2019-05-03T07:19:32.548Z,16.31
2019-05-03T07:19:58.721Z,16.12
2019-05-03T07:20:51.003Z,15.79
2019-05-03T07:22:09.466Z,15.61
2019-05-03T07:23:01.756Z,15.42
2019-05-03T07:23:27.915Z,15.37
2019-05-03T07:24:20.200Z,15.33
2019-05-03T07:25:12.533Z,15.09
2019-05-03T07:25:38.674Z,15.19
2019-05-03T07:26:30.962Z,15.14
2019-05-03T07:27:49.752Z,14.96
2019-05-03T07:29:10.204Z,14.63
2019-05-03T07:30:04.629Z,14.78
2019-05-03T07:30:28.682Z,14.65
2019-05-03T07:31:20.974Z,14.65
2019-05-03T07:32:40.383Z,14.69
2019-05-03T07:33:34.499Z,14.58
2019-05-03T07:33:59.801Z,14.51
2019-05-03T07:34:52.148Z,14.54
2019-05-03T07:35:19.268Z,14.55
2019-05-03T07:36:11.559Z,14.41
2019-05-03T07:36:37.730Z,14.5
2019-05-03T07:37:30.014Z,14.35
2019-05-03T07:38:22.296Z,14.33
2019-05-03T07:38:48.466Z,14.11
2019-05-03T07:39:40.786Z,14.23
2019-05-03T07:41:00.232Z,13.96
2019-05-03T07:41:52.532Z,13.72
2019-05-03T07:42:18.693Z,13.62
2019-05-03T07:43:10.986Z,13.68
2019-05-03T07:44:29.410Z,13.89
2019-05-03T07:45:21.733Z,13.9
2019-05-03T07:45:48.865Z,13.85
2019-05-03T07:46:42.165Z,13.72
2019-05-03T07:47:08.305Z,13.72
2019-05-03T07:48:00.589Z,13.71
2019-05-03T07:49:19.033Z,13.78
2019-05-03T07:50:11.340Z,13.65
2019-05-03T07:50:38.465Z,13.72
2019-05-03T07:51:30.752Z,13.83
2019-05-03T07:52:50.163Z,14.73
2019-05-03T07:53:42.466Z,15.29
2019-05-03T07:54:08.600Z,15.55
2019-05-03T07:55:00.892Z,16.15
2019-05-03T07:56:19.355Z,17.16
2019-05-03T07:57:11.667Z,17.49
2019-05-03T07:57:37.807Z,17.64
2019-05-03T07:58:30.098Z,17.86
2019-05-03T07:59:50.518Z,18.52
2019-05-03T08:01:11.915Z,19.02
2019-05-03T08:01:38.051Z,19.26
2019-05-03T08:02:30.349Z,19.82
2019-05-03T08:03:24.317Z,20.47
2019-05-03T08:03:49.783Z,20.81
2019-05-03T08:04:42.088Z,21.22
2019-05-03T08:05:08.229Z,21.35
2019-05-03T08:06:00.541Z,21.06
2019-05-03T08:07:22.938Z,20.58
2019-05-03T08:07:48.139Z,20.29
2019-05-03T08:08:40.478Z,20.02
2019-05-03T08:09:59.967Z,19.67
2019-05-03T08:10:52.263Z,19.08
2019-05-03T08:11:18.439Z,18.96
2019-05-03T08:12:10.766Z,18.37
2019-05-03T08:13:30.194Z,18.01
2019-05-03T08:14:22.522Z,17.83
2019-05-03T08:14:48.655Z,17.79
2019-05-03T08:15:40.949Z,17.72
2019-05-03T08:16:59.436Z,17.97
2019-05-03T08:17:51.748Z,18.25
2019-05-03T08:18:17.935Z,18.23
2019-05-03T08:19:10.222Z,18.28
2019-05-03T08:20:30.626Z,18.84
2019-05-03T08:21:49.120Z,18.93
2019-05-03T08:22:41.438Z,18.9
2019-05-03T08:23:07.575Z,19.22
2019-05-03T08:24:01.847Z,19.59
2019-05-03T08:24:27.988Z,19.76
2019-05-03T08:25:20.273Z,20.04
2019-05-03T08:26:12.567Z,20.47
2019-05-03T08:26:38.726Z,20.58
2019-05-03T08:27:31.048Z,20.9
2019-05-03T08:28:49.529Z,21.42
2019-05-03T08:29:19.473Z,21.29
2019-05-03T08:30:10.946Z,21.73
2019-05-03T08:31:29.371Z,21.7
2019-05-03T08:32:21.672Z,21.22
2019-05-03T08:32:48.831Z,21.09
2019-05-03T08:33:41.167Z,20.97
2019-05-03T08:34:59.622Z,19.54
2019-05-03T08:35:51.932Z,19.31
2019-05-03T08:36:18.107Z,19.02
2019-05-03T08:37:10.397Z,18.77
2019-05-03T08:38:04.816Z,18.83
2019-05-03T08:38:29.822Z,18.98
2019-05-03T08:39:22.111Z,18.74
2019-05-03T08:39:48.249Z,18.74
2019-05-03T08:40:40.570Z,18.59
2019-05-03T08:41:59.006Z,18.43
2019-05-03T08:42:51.329Z,18.41
2019-05-03T08:43:17.531Z,18.49
2019-05-03T08:44:09.843Z,18.28
2019-05-03T08:45:04.419Z,18.18
2019-05-03T08:45:29.334Z,18.13
2019-05-03T08:46:21.628Z,18.03
2019-05-03T08:46:48.813Z,17.86
2019-05-03T08:47:41.122Z,17.83
2019-05-03T08:49:00.879Z,17.83
2019-05-03T08:50:21.506Z,17.68
2019-05-03T08:51:40.135Z,17.92
2019-05-03T08:52:34.621Z,18.29
2019-05-03T08:52:59.652Z,18.59
2019-05-03T08:53:51.989Z,18.86
2019-05-03T08:54:19.150Z,19.22
2019-05-03T08:55:11.459Z,19.89
2019-05-03T08:55:37.608Z,20.16
2019-05-03T08:56:29.964Z,20.4
2019-05-03T08:57:22.431Z,20.47
2019-05-03T08:57:48.512Z,20.67
2019-05-03T08:58:40.801Z,20.78
2019-05-03T09:00:00.273Z,20.26
2019-05-03T09:00:54.519Z,19.82
2019-05-03T09:01:19.760Z,19.88
2019-05-03T09:02:39.767Z,20
2019-05-03T09:03:32.101Z,19.88
2019-05-03T09:03:58.240Z,19.79
2019-05-03T09:04:54.200Z,19.62
2019-05-03T09:05:19.642Z,19.52
2019-05-03T09:06:11.989Z,19.26
2019-05-03T09:06:38.125Z,18.89
2019-05-03T09:07:30.458Z,18.93
2019-05-03T09:08:48.985Z,18
2019-05-03T09:09:41.314Z,17.83
2019-05-03T09:11:00.777Z,17.51
2019-05-03T09:11:33.521Z,17.48
2019-05-03T09:12:21.206Z,17.42
2019-05-03T09:13:39.651Z,16.96
2019-05-03T09:14:39.466Z,16.93
2019-05-03T09:15:00.098Z,16.79
2019-05-03T09:16:20.345Z,16.79
2019-05-03T09:17:12.671Z,16.71
2019-05-03T09:17:38.850Z,16.83
2019-05-03T09:18:31.162Z,17.33
2019-05-03T09:19:49.619Z,18.22
2019-05-03T09:21:09.025Z,18.75
2019-05-03T09:22:01.313Z,18.89
2019-05-03T09:23:23.310Z,19.08
2019-05-03T09:23:48.942Z,19
2019-05-03T09:24:41.239Z,19.22
2019-05-03T09:25:59.716Z,19.71
2019-05-03T09:26:52.007Z,19.66
2019-05-03T09:27:19.138Z,19.81
2019-05-03T09:28:11.486Z,19.82
2019-05-03T09:28:38.740Z,19.76
2019-05-03T09:29:40.937Z,19.58
2019-05-03T09:29:59.146Z,19.39
2019-05-03T09:30:51.437Z,19.49
2019-05-03T09:31:17.574Z,19.34
2019-05-03T09:32:09.893Z,19.22
2019-05-03T09:33:02.236Z,19.47
2019-05-03T09:33:28.444Z,19.66
2019-05-03T09:34:20.737Z,19.7
2019-05-03T09:35:41.182Z,19.26
2019-05-03T09:36:59.638Z,19.12
2019-05-03T09:37:51.926Z,18.89
2019-05-03T09:38:18.073Z,18.65
2019-05-03T09:39:10.435Z,18.52
2019-05-03T09:40:04.476Z,18.77
2019-05-03T09:40:29.867Z,18.7
2019-05-03T09:41:22.220Z,18.55
2019-05-03T09:41:49.349Z,18.56
2019-05-03T09:42:41.641Z,18.11
2019-05-03T09:43:08.771Z,17.89
2019-05-03T09:44:01.062Z,17.48
2019-05-03T09:45:19.538Z,17.65
2019-05-03T09:46:11.837Z,17.67
2019-05-03T09:46:38.967Z,17.6
2019-05-03T09:47:31.259Z,17.68
2019-05-03T09:48:49.704Z,17.51
2019-05-03T09:49:17.808Z,17.46
2019-05-03T09:50:11.087Z,17.44
2019-05-03T09:51:29.588Z,17.34
2019-05-03T09:52:21.949Z,17.65
2019-05-03T09:52:49.114Z,17.83
2019-05-03T09:53:41.419Z,18.35
2019-05-03T09:54:07.559Z,18.18
2019-05-03T09:54:59.862Z,18.28
2019-05-03T09:55:52.187Z,18.53
2019-05-03T09:56:19.368Z,18.75
2019-05-03T09:57:11.758Z,18.81
2019-05-03T09:57:38.886Z,18.81
2019-05-03T09:58:31.230Z,18.65
2019-05-03T09:59:56.999Z,18.1
2019-05-03T10:01:09.176Z,18.5
2019-05-03T10:02:01.475Z,18.38
2019-05-03T10:02:28.622Z,18.4
2019-05-03T10:03:20.911Z,18.33
2019-05-03T10:04:39.372Z,17.57
2019-05-03T10:05:31.695Z,17.31
2019-05-03T10:05:58.854Z,17.38
2019-05-03T10:06:51.179Z,17.26
2019-05-03T10:08:09.654Z,17.29
2019-05-03T10:09:01.967Z,17.26
2019-05-03T10:09:28.110Z,17.24
2019-05-03T10:10:20.415Z,17.33
2019-05-03T10:11:15.103Z,17.41
2019-05-03T10:11:39.887Z,17.15
2019-05-03T10:12:32.196Z,17.36
2019-05-03T10:12:58.334Z,17.38
2019-05-03T10:13:51.713Z,17.65
2019-05-03T10:14:17.854Z,17.6
2019-05-03T10:15:10.171Z,17.85
2019-05-03T10:16:02.458Z,18.05
2019-05-03T10:16:28.619Z,17.85
2019-05-03T10:17:20.954Z,18.44
2019-05-03T10:18:40.767Z,19.56
2019-05-03T10:20:01.285Z,19.95
2019-05-03T10:21:20.785Z,20.43
2019-05-03T10:22:40.255Z,20.99
2019-05-03T10:23:32.594Z,21.06
2019-05-03T10:23:58.740Z,21.14
2019-05-03T10:24:51.134Z,20.62
2019-05-03T10:26:11.674Z,20.95
2019-05-03T10:26:37.785Z,21.12
2019-05-03T10:27:30.395Z,21.58
2019-05-03T10:28:22.688Z,21.88
2019-05-03T10:28:48.862Z,21.66
2019-05-03T10:29:41.164Z,22
2019-05-03T10:30:12.407Z,22.08
2019-05-03T10:31:01.602Z,22.04
2019-05-03T10:31:27.739Z,22.06
2019-05-03T10:32:35.464Z,21.76
2019-05-03T10:33:01.146Z,21.48
2019-05-03T10:34:19.604Z,21.02
2019-05-03T10:35:11.937Z,20.92
2019-05-03T10:35:39.068Z,20.9
2019-05-03T10:36:31.382Z,20.5
2019-05-03T10:36:57.546Z,20.37
2019-05-03T10:37:49.880Z,20.19
2019-05-03T10:38:42.194Z,19.92
2019-05-03T10:39:08.349Z,19.77
2019-05-03T10:40:00.645Z,19.34
2019-05-03T10:41:19.137Z,19.08
2019-05-03T10:42:11.425Z,18.65